sensor_id;sensor_type;location;lat;lon;timestamp;temperature;humidity
36856;DHT22;22788;51.434;6.786;2023-01-20T00:46:33;3.80;99.90
36856;DHT22;22788;51.434;6.786;2023-01-20T00:48:59;3.70;99.90
36856;DHT22;22788;51.434;6.786;2023-01-20T00:51:25;4.00;99.90
36856;DHT22;22788;51.434;6.786;2023-01-20T00:53:53;4.00;99.90
36856;DHT22;22788;51.434;6.786;2023-01-20T00:56:19;4.00;99.90
36856;DHT22;22788;51.434;6.786;2023-01-20T00:58:45;3.80;99.90
36856;DHT22;22788;51.434;6.786;2023-01-20T01:01:11;3.80;99.90
36856;DHT22;22788;51.434;6.786;2023-01-20T01:03:37;3.90;99.90
36856;DHT22;22788;51.434;6.786;2023-01-20T01:06:08;3.70;99.90
36856;DHT22;22788;51.434;6.786;2023-01-20T01:08:35;3.60;99.90
36856;DHT22;22788;51.434;6.786;2023-01-20T01:11:03;3.80;99.90
36856;DHT22;22788;51.434;6.786;2023-01-20T01:13:29;3.80;99.90
36856;DHT22;22788;51.434;6.786;2023-01-20T01:15:55;3.80;99.90
36856;DHT22;22788;51.434;6.786;2023-01-20T01:18:23;4.00;99.90
36856;DHT22;22788;51.434;6.786;2023-01-20T01:20:51;4.10;99.90
36856;DHT22;22788;51.434;6.786;2023-01-20T01:23:19;4.10;99.90
36856;DHT22;22788;51.434;6.786;2023-01-20T01:25:45;4.10;99.90
36856;DHT22;22788;51.434;6.786;2023-01-20T01:28:16;4.00;99.90
36856;DHT22;22788;51.434;6.786;2023-01-20T01:30:42;4.00;99.90
36856;DHT22;22788;51.434;6.786;2023-01-20T01:33:08;3.60;99.90
36856;DHT22;22788;51.434;6.786;2023-01-20T01:35:34;3.70;99.90
36856;DHT22;22788;51.434;6.786;2023-01-20T01:38:00;3.70;99.90
36856;DHT22;22788;51.434;6.786;2023-01-20T01:40:26;3.80;99.90
36856;DHT22;22788;51.434;6.786;2023-01-20T01:42:52;3.80;99.90
36856;DHT22;22788;51.434;6.786;2023-01-20T01:45:34;3.60;99.90
36856;DHT22;22788;51.434;6.786;2023-01-20T01:48:04;3.80;99.90
36856;DHT22;22788;51.434;6.786;2023-01-20T01:50:35;3.80;99.90
36856;DHT22;22788;51.434;6.786;2023-01-20T01:53:03;3.50;99.90
36856;DHT22;22788;51.434;6.786;2023-01-20T01:55:35;3.40;99.90
36856;DHT22;22788;51.434;6.786;2023-01-20T01:58:03;3.40;99.90
36856;DHT22;22788;51.434;6.786;2023-01-20T02:00:29;3.60;99.90
36856;DHT22;22788;51.434;6.786;2023-01-20T02:02:57;3.90;99.90
36856;DHT22;22788;51.434;6.786;2023-01-20T02:05:24;3.50;99.90
36856;DHT22;22788;51.434;6.786;2023-01-20T02:07:52;3.80;99.90
36856;DHT22;22788;51.434;6.786;2023-01-20T02:10:18;3.50;99.90
36856;DHT22;22788;51.434;6.786;2023-01-20T02:12:45;3.80;99.90
36856;DHT22;22788;51.434;6.786;2023-01-20T02:15:13;3.80;99.90
36856;DHT22;22788;51.434;6.786;2023-01-20T02:17:45;4.20;99.90
36856;DHT22;22788;51.434;6.786;2023-01-20T02:20:36;3.90;99.90
36856;DHT22;22788;51.434;6.786;2023-01-20T02:23:07;4.00;99.90
36856;DHT22;22788;51.434;6.786;2023-01-20T02:26:11;3.80;99.90
36856;DHT22;22788;51.434;6.786;2023-01-20T02:29:07;4.00;99.90
36856;DHT22;22788;51.434;6.786;2023-01-20T02:32:08;4.00;99.90
36856;DHT22;22788;51.434;6.786;2023-01-20T02:34:41;4.00;99.90
36856;DHT22;22788;51.434;6.786;2023-01-20T02:37:13;3.90;99.90
36856;DHT22;22788;51.434;6.786;2023-01-20T02:39:47;3.70;99.90
36856;DHT22;22788;51.434;6.786;2023-01-20T02:42:21;3.90;99.90
36856;DHT22;22788;51.434;6.786;2023-01-20T02:44:53;3.70;99.90
36856;DHT22;22788;51.434;6.786;2023-01-20T02:47:24;3.80;99.90
36856;DHT22;22788;51.434;6.786;2023-01-20T02:49:54;3.70;99.90
36856;DHT22;22788;51.434;6.786;2023-01-20T02:52:25;3.70;99.90
36856;DHT22;22788;51.434;6.786;2023-01-20T02:54:55;3.80;99.90
36856;DHT22;22788;51.434;6.786;2023-01-20T02:57:26;3.80;99.90
36856;DHT22;22788;51.434;6.786;2023-01-20T02:59:57;4.10;99.90
36856;DHT22;22788;51.434;6.786;2023-01-20T03:02:28;3.80;99.90
36856;DHT22;22788;51.434;6.786;2023-01-20T03:05:00;3.80;99.90
36856;DHT22;22788;51.434;6.786;2023-01-20T03:07:31;3.80;99.90
36856;DHT22;22788;51.434;6.786;2023-01-20T03:10:03;3.70;99.90
36856;DHT22;22788;51.434;6.786;2023-01-20T03:12:37;3.60;99.90
36856;DHT22;22788;51.434;6.786;2023-01-20T03:15:08;3.90;99.90
36856;DHT22;22788;51.434;6.786;2023-01-20T03:17:38;4.00;99.90
36856;DHT22;22788;51.434;6.786;2023-01-20T03:20:08;3.60;99.90
36856;DHT22;22788;51.434;6.786;2023-01-20T03:22:34;4.00;99.90
36856;DHT22;22788;51.434;6.786;2023-01-20T03:25:00;4.90;99.90
36856;DHT22;22788;51.434;6.786;2023-01-20T03:27:27;3.90;99.90
36856;DHT22;22788;51.434;6.786;2023-01-20T03:29:53;3.90;99.90
36856;DHT22;22788;51.434;6.786;2023-01-20T03:32:20;3.90;99.90
36856;DHT22;22788;51.434;6.786;2023-01-20T03:34:48;3.90;99.90
36856;DHT22;22788;51.434;6.786;2023-01-20T03:37:14;3.90;99.90
36856;DHT22;22788;51.434;6.786;2023-01-20T03:39:40;3.80;99.90
36856;DHT22;22788;51.434;6.786;2023-01-20T03:42:09;3.80;99.90
36856;DHT22;22788;51.434;6.786;2023-01-20T03:44:49;3.80;99.90
36856;DHT22;22788;51.434;6.786;2023-01-20T03:47:26;3.80;99.90
36856;DHT22;22788;51.434;6.786;2023-01-20T03:50:01;4.40;99.90
36856;DHT22;22788;51.434;6.786;2023-01-20T03:52:34;3.70;99.90
36856;DHT22;22788;51.434;6.786;2023-01-20T03:55:04;3.80;99.90
36856;DHT22;22788;51.434;6.786;2023-01-20T03:57:36;4.00;99.90
36856;DHT22;22788;51.434;6.786;2023-01-20T04:00:04;3.80;99.90
36856;DHT22;22788;51.434;6.786;2023-01-20T04:02:33;3.90;99.90
36856;DHT22;22788;51.434;6.786;2023-01-20T04:05:03;3.60;99.90
36856;DHT22;22788;51.434;6.786;2023-01-20T04:07:30;3.80;99.90
36856;DHT22;22788;51.434;6.786;2023-01-20T04:10:01;3.50;99.90
36856;DHT22;22788;51.434;6.786;2023-01-20T04:12:28;3.50;99.90
36856;DHT22;22788;51.434;6.786;2023-01-20T04:14:54;3.60;99.90
36856;DHT22;22788;51.434;6.786;2023-01-20T04:17:21;3.70;99.90
36856;DHT22;22788;51.434;6.786;2023-01-20T04:19:51;3.60;99.90
36856;DHT22;22788;51.434;6.786;2023-01-20T04:22:23;4.10;99.90
36856;DHT22;22788;51.434;6.786;2023-01-20T04:24:52;3.90;99.90
36856;DHT22;22788;51.434;6.786;2023-01-20T04:27:20;3.90;99.90
36856;DHT22;22788;51.434;6.786;2023-01-20T04:29:46;4.00;99.90
36856;DHT22;22788;51.434;6.786;2023-01-20T04:32:12;3.90;99.90
36856;DHT22;22788;51.434;6.786;2023-01-20T04:34:39;3.90;99.90
36856;DHT22;22788;51.434;6.786;2023-01-20T04:37:05;4.30;99.90
36856;DHT22;22788;51.434;6.786;2023-01-20T04:39:32;3.80;99.90
36856;DHT22;22788;51.434;6.786;2023-01-20T04:41:58;4.00;99.90
36856;DHT22;22788;51.434;6.786;2023-01-20T04:44:24;4.00;99.90
36856;DHT22;22788;51.434;6.786;2023-01-20T04:46:55;4.00;99.90
36856;DHT22;22788;51.434;6.786;2023-01-20T04:49:21;4.10;99.90
36856;DHT22;22788;51.434;6.786;2023-01-20T04:51:47;4.10;99.90
36856;DHT22;22788;51.434;6.786;2023-01-20T04:54:13;4.00;99.90
36856;DHT22;22788;51.434;6.786;2023-01-20T04:56:41;5.10;99.90
36856;DHT22;22788;51.434;6.786;2023-01-20T04:59:07;4.10;99.90
36856;DHT22;22788;51.434;6.786;2023-01-20T05:01:33;4.10;99.90
36856;DHT22;22788;51.434;6.786;2023-01-20T05:03:59;4.00;99.90
36856;DHT22;22788;51.434;6.786;2023-01-20T05:06:25;4.10;99.90
36856;DHT22;22788;51.434;6.786;2023-01-20T05:08:51;4.10;99.90
36856;DHT22;22788;51.434;6.786;2023-01-20T05:11:17;3.90;99.90
36856;DHT22;22788;51.434;6.786;2023-01-20T05:13:44;4.10;99.90
36856;DHT22;22788;51.434;6.786;2023-01-20T05:16:10;4.00;99.90
36856;DHT22;22788;51.434;6.786;2023-01-20T05:18:36;3.70;99.90
36856;DHT22;22788;51.434;6.786;2023-01-20T05:21:04;3.90;99.90
36856;DHT22;22788;51.434;6.786;2023-01-20T05:23:30;4.20;99.90
36856;DHT22;22788;51.434;6.786;2023-01-20T05:25:56;4.10;99.90
36856;DHT22;22788;51.434;6.786;2023-01-20T05:28:22;3.90;99.90
36856;DHT22;22788;51.434;6.786;2023-01-20T05:30:49;3.90;99.90
36856;DHT22;22788;51.434;6.786;2023-01-20T05:33:16;4.00;99.90
36856;DHT22;22788;51.434;6.786;2023-01-20T05:35:42;4.20;99.90
36856;DHT22;22788;51.434;6.786;2023-01-20T05:38:08;4.00;99.90
36856;DHT22;22788;51.434;6.786;2023-01-20T05:40:34;4.40;99.90
36856;DHT22;22788;51.434;6.786;2023-01-20T05:43:00;4.10;99.90
36856;DHT22;22788;51.434;6.786;2023-01-20T05:45:26;3.70;99.90
36856;DHT22;22788;51.434;6.786;2023-01-20T05:47:55;4.10;99.90
36856;DHT22;22788;51.434;6.786;2023-01-20T05:50:21;4.00;99.90
36856;DHT22;22788;51.434;6.786;2023-01-20T05:52:47;4.00;99.90
36856;DHT22;22788;51.434;6.786;2023-01-20T05:55:13;3.90;99.90
36856;DHT22;22788;51.434;6.786;2023-01-20T05:57:39;4.00;99.90
36856;DHT22;22788;51.434;6.786;2023-01-20T06:00:07;4.00;99.90
36856;DHT22;22788;51.434;6.786;2023-01-20T06:02:33;4.10;99.90
36856;DHT22;22788;51.434;6.786;2023-01-20T06:05:01;4.00;99.90
36856;DHT22;22788;51.434;6.786;2023-01-20T06:07:27;4.10;99.90
36856;DHT22;22788;51.434;6.786;2023-01-20T06:09:53;4.00;99.90
36856;DHT22;22788;51.434;6.786;2023-01-20T06:12:19;4.00;99.90
36856;DHT22;22788;51.434;6.786;2023-01-20T06:14:45;4.00;99.90
36856;DHT22;22788;51.434;6.786;2023-01-20T06:17:11;4.00;99.90
36856;DHT22;22788;51.434;6.786;2023-01-20T06:19:37;4.00;99.90
36856;DHT22;22788;51.434;6.786;2023-01-20T06:22:06;4.00;99.90
36856;DHT22;22788;51.434;6.786;2023-01-20T06:24:32;4.10;99.90
36856;DHT22;22788;51.434;6.786;2023-01-20T06:26:58;3.90;99.90
36856;DHT22;22788;51.434;6.786;2023-01-20T06:29:24;4.00;99.90
36856;DHT22;22788;51.434;6.786;2023-01-20T06:31:50;4.20;99.90
36856;DHT22;22788;51.434;6.786;2023-01-20T06:34:16;3.90;99.90
36856;DHT22;22788;51.434;6.786;2023-01-20T06:36:42;3.90;99.90
36856;DHT22;22788;51.434;6.786;2023-01-20T06:39:10;3.90;99.90
36856;DHT22;22788;51.434;6.786;2023-01-20T06:41:36;4.00;99.90
36856;DHT22;22788;51.434;6.786;2023-01-20T06:44:02;4.00;99.90
36856;DHT22;22788;51.434;6.786;2023-01-20T06:46:28;4.00;99.90
36856;DHT22;22788;51.434;6.786;2023-01-20T06:48:54;3.90;99.90
36856;DHT22;22788;51.434;6.786;2023-01-20T06:51:20;4.00;99.90
36856;DHT22;22788;51.434;6.786;2023-01-20T06:53:47;3.70;99.90
36856;DHT22;22788;51.434;6.786;2023-01-20T06:56:14;4.00;99.90
36856;DHT22;22788;51.434;6.786;2023-01-20T06:58:41;3.90;99.90
36856;DHT22;22788;51.434;6.786;2023-01-20T07:01:09;4.00;99.90
36856;DHT22;22788;51.434;6.786;2023-01-20T07:03:36;4.00;99.90
36856;DHT22;22788;51.434;6.786;2023-01-20T07:08:29;4.00;99.90
36856;DHT22;22788;51.434;6.786;2023-01-20T07:10:56;4.00;99.90
36856;DHT22;22788;51.434;6.786;2023-01-20T07:13:23;3.90;99.90
36856;DHT22;22788;51.434;6.786;2023-01-20T07:15:50;3.80;99.90
36856;DHT22;22788;51.434;6.786;2023-01-20T07:18:16;3.80;99.90
36856;DHT22;22788;51.434;6.786;2023-01-20T07:20:42;3.80;99.90
36856;DHT22;22788;51.434;6.786;2023-01-20T07:23:08;3.80;99.90
36856;DHT22;22788;51.434;6.786;2023-01-20T07:25:34;3.80;99.90
36856;DHT22;22788;51.434;6.786;2023-01-20T07:28:00;3.80;99.90
36856;DHT22;22788;51.434;6.786;2023-01-20T07:30:27;3.80;99.90
36856;DHT22;22788;51.434;6.786;2023-01-20T07:32:53;3.80;99.90
36856;DHT22;22788;51.434;6.786;2023-01-20T07:35:19;3.80;99.90
36856;DHT22;22788;51.434;6.786;2023-01-20T07:37:45;3.80;99.90
36856;DHT22;22788;51.434;6.786;2023-01-20T07:40:12;3.80;99.90
36856;DHT22;22788;51.434;6.786;2023-01-20T07:42:39;3.70;99.90
36856;DHT22;22788;51.434;6.786;2023-01-20T07:45:06;3.60;99.90
36856;DHT22;22788;51.434;6.786;2023-01-20T07:47:33;3.60;99.90
36856;DHT22;22788;51.434;6.786;2023-01-20T07:49:59;3.80;99.90
36856;DHT22;22788;51.434;6.786;2023-01-20T07:52:25;3.80;99.90
36856;DHT22;22788;51.434;6.786;2023-01-20T07:54:52;3.80;99.90
36856;DHT22;22788;51.434;6.786;2023-01-20T07:57:18;3.80;99.90
36856;DHT22;22788;51.434;6.786;2023-01-20T07:59:44;3.80;99.90
36856;DHT22;22788;51.434;6.786;2023-01-20T08:02:10;3.70;99.90
36856;DHT22;22788;51.434;6.786;2023-01-20T08:04:37;3.70;99.90
36856;DHT22;22788;51.434;6.786;2023-01-20T08:07:03;3.60;99.90
36856;DHT22;22788;51.434;6.786;2023-01-20T08:09:29;3.70;99.90
36856;DHT22;22788;51.434;6.786;2023-01-20T08:11:55;3.70;99.90
36856;DHT22;22788;51.434;6.786;2023-01-20T08:14:21;3.80;99.90
36856;DHT22;22788;51.434;6.786;2023-01-20T08:16:47;3.80;99.90
36856;DHT22;22788;51.434;6.786;2023-01-20T08:19:13;3.70;99.90
36856;DHT22;22788;51.434;6.786;2023-01-20T08:21:41;3.70;99.90
36856;DHT22;22788;51.434;6.786;2023-01-20T08:24:09;3.80;99.90
36856;DHT22;22788;51.434;6.786;2023-01-20T08:26:35;3.90;99.90
36856;DHT22;22788;51.434;6.786;2023-01-20T08:29:03;3.90;99.90
36856;DHT22;22788;51.434;6.786;2023-01-20T08:31:29;3.90;99.90
36856;DHT22;22788;51.434;6.786;2023-01-20T08:33:55;3.80;99.90
36856;DHT22;22788;51.434;6.786;2023-01-20T08:36:23;3.80;99.90
36856;DHT22;22788;51.434;6.786;2023-01-20T08:38:53;3.70;99.90
36856;DHT22;22788;51.434;6.786;2023-01-20T08:41:21;3.70;99.90
36856;DHT22;22788;51.434;6.786;2023-01-20T08:43:48;3.80;99.90
36856;DHT22;22788;51.434;6.786;2023-01-20T08:46:15;3.90;99.90
36856;DHT22;22788;51.434;6.786;2023-01-20T08:48:42;3.90;99.90
36856;DHT22;22788;51.434;6.786;2023-01-20T08:51:11;3.70;99.90
36856;DHT22;22788;51.434;6.786;2023-01-20T08:53:37;3.70;99.90
36856;DHT22;22788;51.434;6.786;2023-01-20T08:56:05;3.80;99.90
36856;DHT22;22788;51.434;6.786;2023-01-20T08:58:32;3.70;99.90
36856;DHT22;22788;51.434;6.786;2023-01-20T09:00:58;3.70;99.90
36856;DHT22;22788;51.434;6.786;2023-01-20T09:03:25;3.80;99.90
36856;DHT22;22788;51.434;6.786;2023-01-20T09:05:51;3.80;99.90
36856;DHT22;22788;51.434;6.786;2023-01-20T09:08:19;3.70;99.90
36856;DHT22;22788;51.434;6.786;2023-01-20T09:10:45;3.70;99.90
36856;DHT22;22788;51.434;6.786;2023-01-20T09:13:13;3.80;99.90
36856;DHT22;22788;51.434;6.786;2023-01-20T09:15:39;3.80;99.90
36856;DHT22;22788;51.434;6.786;2023-01-20T09:18:05;3.80;99.90
36856;DHT22;22788;51.434;6.786;2023-01-20T09:20:31;3.80;99.90
36856;DHT22;22788;51.434;6.786;2023-01-20T09:23:00;3.60;99.90
36856;DHT22;22788;51.434;6.786;2023-01-20T09:25:26;3.70;99.90
36856;DHT22;22788;51.434;6.786;2023-01-20T09:27:52;3.80;99.90
36856;DHT22;22788;51.434;6.786;2023-01-20T09:30:20;3.70;99.90
36856;DHT22;22788;51.434;6.786;2023-01-20T09:32:48;3.60;99.90
36856;DHT22;22788;51.434;6.786;2023-01-20T09:35:14;3.70;99.90
36856;DHT22;22788;51.434;6.786;2023-01-20T09:37:40;3.80;99.90
36856;DHT22;22788;51.434;6.786;2023-01-20T09:40:09;3.80;99.90
36856;DHT22;22788;51.434;6.786;2023-01-20T09:42:47;3.80;99.90
36856;DHT22;22788;51.434;6.786;2023-01-20T09:45:21;3.90;99.90
36856;DHT22;22788;51.434;6.786;2023-01-20T09:47:49;3.90;99.90
36856;DHT22;22788;51.434;6.786;2023-01-20T09:50:25;3.90;99.90
36856;DHT22;22788;51.434;6.786;2023-01-20T09:53:00;3.80;99.90
36856;DHT22;22788;51.434;6.786;2023-01-20T09:55:31;3.80;99.90
36856;DHT22;22788;51.434;6.786;2023-01-20T09:58:06;3.70;99.90
36856;DHT22;22788;51.434;6.786;2023-01-20T10:00:36;3.80;99.90
36856;DHT22;22788;51.434;6.786;2023-01-20T10:03:06;3.90;99.90
36856;DHT22;22788;51.434;6.786;2023-01-20T10:05:37;3.90;99.90
36856;DHT22;22788;51.434;6.786;2023-01-20T10:08:07;3.90;99.90
36856;DHT22;22788;51.434;6.786;2023-01-20T10:10:37;3.90;99.90
36856;DHT22;22788;51.434;6.786;2023-01-20T10:13:09;3.90;99.90
36856;DHT22;22788;51.434;6.786;2023-01-20T10:15:42;3.90;99.90
36856;DHT22;22788;51.434;6.786;2023-01-20T10:18:13;4.00;99.90
36856;DHT22;22788;51.434;6.786;2023-01-20T10:20:47;4.00;99.90
36856;DHT22;22788;51.434;6.786;2023-01-20T10:23:20;4.10;99.90
36856;DHT22;22788;51.434;6.786;2023-01-20T10:25:49;4.00;99.90
36856;DHT22;22788;51.434;6.786;2023-01-20T10:28:22;4.00;99.90
36856;DHT22;22788;51.434;6.786;2023-01-20T10:30:52;4.00;99.90
36856;DHT22;22788;51.434;6.786;2023-01-20T10:33:23;3.90;99.90
36856;DHT22;22788;51.434;6.786;2023-01-20T10:35:53;3.90;99.90
36856;DHT22;22788;51.434;6.786;2023-01-20T10:38:25;4.00;99.90
36856;DHT22;22788;51.434;6.786;2023-01-20T10:40:59;3.90;99.90
36856;DHT22;22788;51.434;6.786;2023-01-20T10:43:27;4.00;99.90
36856;DHT22;22788;51.434;6.786;2023-01-20T10:46:04;4.00;99.90
36856;DHT22;22788;51.434;6.786;2023-01-20T10:48:49;3.90;99.90
36856;DHT22;22788;51.434;6.786;2023-01-20T10:51:26;3.90;99.90
36856;DHT22;22788;51.434;6.786;2023-01-20T10:54:00;3.80;99.90
36856;DHT22;22788;51.434;6.786;2023-01-20T10:56:37;3.80;99.90
36856;DHT22;22788;51.434;6.786;2023-01-20T10:59:10;3.90;99.90
36856;DHT22;22788;51.434;6.786;2023-01-20T11:01:39;3.90;99.90
36856;DHT22;22788;51.434;6.786;2023-01-20T11:04:05;3.90;99.90
36856;DHT22;22788;51.434;6.786;2023-01-20T11:06:37;4.00;99.90
36856;DHT22;22788;51.434;6.786;2023-01-20T11:09:19;4.00;99.90
36856;DHT22;22788;51.434;6.786;2023-01-20T11:11:46;4.00;99.90
36856;DHT22;22788;51.434;6.786;2023-01-20T11:14:12;4.10;99.90
36856;DHT22;22788;51.434;6.786;2023-01-20T11:16:41;4.10;99.90
36856;DHT22;22788;51.434;6.786;2023-01-20T11:19:07;4.00;99.90
36856;DHT22;22788;51.434;6.786;2023-01-20T11:21:34;3.90;99.90
36856;DHT22;22788;51.434;6.786;2023-01-20T11:24:01;4.00;99.90
36856;DHT22;22788;51.434;6.786;2023-01-20T11:26:30;4.00;99.90
36856;DHT22;22788;51.434;6.786;2023-01-20T11:28:58;4.00;99.90
36856;DHT22;22788;51.434;6.786;2023-01-20T11:31:36;4.00;99.90
36856;DHT22;22788;51.434;6.786;2023-01-20T11:34:21;4.00;99.90
36856;DHT22;22788;51.434;6.786;2023-01-20T11:36:48;4.00;99.90
36856;DHT22;22788;51.434;6.786;2023-01-20T11:39:24;4.00;99.90
36856;DHT22;22788;51.434;6.786;2023-01-20T11:42:09;4.00;99.90
36856;DHT22;22788;51.434;6.786;2023-01-20T11:44:40;4.00;99.90
36856;DHT22;22788;51.434;6.786;2023-01-20T11:47:20;4.10;99.90
36856;DHT22;22788;51.434;6.786;2023-01-20T11:50:16;4.10;99.90
36856;DHT22;22788;51.434;6.786;2023-01-20T11:52:44;4.10;99.90
36856;DHT22;22788;51.434;6.786;2023-01-20T11:55:13;4.20;99.90
36856;DHT22;22788;51.434;6.786;2023-01-20T11:57:44;4.10;99.90
36856;DHT22;22788;51.434;6.786;2023-01-20T12:00:29;4.10;99.90
36856;DHT22;22788;51.434;6.786;2023-01-20T12:02:57;4.10;99.90
36856;DHT22;22788;51.434;6.786;2023-01-20T12:05:28;4.20;99.90
36856;DHT22;22788;51.434;6.786;2023-01-20T12:08:00;4.10;99.90
36856;DHT22;22788;51.434;6.786;2023-01-20T12:10:31;4.10;99.90
36856;DHT22;22788;51.434;6.786;2023-01-20T12:13:02;4.10;99.90
36856;DHT22;22788;51.434;6.786;2023-01-20T12:15:30;4.10;99.90
36856;DHT22;22788;51.434;6.786;2023-01-20T12:17:59;4.20;99.90
36856;DHT22;22788;51.434;6.786;2023-01-20T12:20:30;4.20;99.90
36856;DHT22;22788;51.434;6.786;2023-01-20T12:23:06;4.20;99.90
36856;DHT22;22788;51.434;6.786;2023-01-20T12:25:38;4.20;99.90
36856;DHT22;22788;51.434;6.786;2023-01-20T12:28:11;4.20;99.90
36856;DHT22;22788;51.434;6.786;2023-01-20T12:30:45;4.20;99.90
36856;DHT22;22788;51.434;6.786;2023-01-20T12:33:18;4.20;99.90
36856;DHT22;22788;51.434;6.786;2023-01-20T12:38:45;4.20;99.90
36856;DHT22;22788;51.434;6.786;2023-01-20T12:41:16;4.20;99.90
36856;DHT22;22788;51.434;6.786;2023-01-20T12:43:55;4.20;99.90
36856;DHT22;22788;51.434;6.786;2023-01-20T12:46:30;4.20;99.90
36856;DHT22;22788;51.434;6.786;2023-01-20T12:49:13;4.20;99.90
36856;DHT22;22788;51.434;6.786;2023-01-20T12:51:54;4.20;99.90
36856;DHT22;22788;51.434;6.786;2023-01-20T12:54:44;4.20;99.90
36856;DHT22;22788;51.434;6.786;2023-01-20T12:57:20;4.20;99.90
36856;DHT22;22788;51.434;6.786;2023-01-20T13:00:05;4.20;99.90
36856;DHT22;22788;51.434;6.786;2023-01-20T13:02:52;4.20;99.90
36856;DHT22;22788;51.434;6.786;2023-01-20T13:05:36;4.20;99.90
36856;DHT22;22788;51.434;6.786;2023-01-20T13:08:12;4.20;99.90
36856;DHT22;22788;51.434;6.786;2023-01-20T13:10:50;4.20;99.90
36856;DHT22;22788;51.434;6.786;2023-01-20T13:13:25;4.20;99.90
36856;DHT22;22788;51.434;6.786;2023-01-20T13:15:59;4.20;99.90
36856;DHT22;22788;51.434;6.786;2023-01-20T13:18:34;4.30;99.90
36856;DHT22;22788;51.434;6.786;2023-01-20T13:21:01;4.20;99.90
36856;DHT22;22788;51.434;6.786;2023-01-20T13:23:32;4.20;99.90
36856;DHT22;22788;51.434;6.786;2023-01-20T13:25:59;4.10;99.90
36856;DHT22;22788;51.434;6.786;2023-01-20T13:28:27;4.20;99.90
36856;DHT22;22788;51.434;6.786;2023-01-20T13:30:54;4.20;99.90
36856;DHT22;22788;51.434;6.786;2023-01-20T13:33:32;4.20;99.90
36856;DHT22;22788;51.434;6.786;2023-01-20T13:35:59;4.20;99.90
36856;DHT22;22788;51.434;6.786;2023-01-20T13:38:29;4.40;99.90
36856;DHT22;22788;51.434;6.786;2023-01-20T13:40:57;4.30;99.90
36856;DHT22;22788;51.434;6.786;2023-01-20T13:43:56;4.30;99.90
36856;DHT22;22788;51.434;6.786;2023-01-20T13:46:45;4.20;99.90
36856;DHT22;22788;51.434;6.786;2023-01-20T13:49:21;4.20;99.90
36856;DHT22;22788;51.434;6.786;2023-01-20T13:51:48;4.20;99.90
36856;DHT22;22788;51.434;6.786;2023-01-20T13:54:35;4.20;99.90
36856;DHT22;22788;51.434;6.786;2023-01-20T14:00:18;4.20;99.90
36856;DHT22;22788;51.434;6.786;2023-01-20T14:02:46;4.20;99.90
36856;DHT22;22788;51.434;6.786;2023-01-20T14:05:24;4.30;99.90
36856;DHT22;22788;51.434;6.786;2023-01-20T14:07:57;4.30;99.90
36856;DHT22;22788;51.434;6.786;2023-01-20T14:10:26;4.30;99.90
36856;DHT22;22788;51.434;6.786;2023-01-20T14:12:52;4.30;99.90
36856;DHT22;22788;51.434;6.786;2023-01-20T14:15:26;4.30;99.90
36856;DHT22;22788;51.434;6.786;2023-01-20T14:17:52;4.30;99.90
36856;DHT22;22788;51.434;6.786;2023-01-20T14:20:21;4.30;99.90
36856;DHT22;22788;51.434;6.786;2023-01-20T14:22:47;4.30;99.90
36856;DHT22;22788;51.434;6.786;2023-01-20T14:25:20;4.20;99.90
36856;DHT22;22788;51.434;6.786;2023-01-20T14:27:48;4.20;99.90
36856;DHT22;22788;51.434;6.786;2023-01-20T14:30:18;4.30;99.90
36856;DHT22;22788;51.434;6.786;2023-01-20T14:32:45;4.30;99.90
36856;DHT22;22788;51.434;6.786;2023-01-20T14:35:13;4.30;99.90
36856;DHT22;22788;51.434;6.786;2023-01-20T14:37:40;4.30;99.90
36856;DHT22;22788;51.434;6.786;2023-01-20T14:40:18;4.30;99.90
36856;DHT22;22788;51.434;6.786;2023-01-20T14:42:56;4.40;99.90
36856;DHT22;22788;51.434;6.786;2023-01-20T14:45:23;4.30;99.90
36856;DHT22;22788;51.434;6.786;2023-01-20T14:47:50;4.30;99.90
36856;DHT22;22788;51.434;6.786;2023-01-20T14:50:17;4.30;99.90
36856;DHT22;22788;51.434;6.786;2023-01-20T14:52:44;4.40;99.90
36856;DHT22;22788;51.434;6.786;2023-01-20T14:55:26;4.30;99.90
36856;DHT22;22788;51.434;6.786;2023-01-20T14:57:52;4.30;99.90
36856;DHT22;22788;51.434;6.786;2023-01-20T15:00:21;4.30;99.90
36856;DHT22;22788;51.434;6.786;2023-01-20T15:02:49;4.20;99.90
36856;DHT22;22788;51.434;6.786;2023-01-20T15:05:21;4.30;99.90
36856;DHT22;22788;51.434;6.786;2023-01-20T15:07:47;4.40;99.90
36856;DHT22;22788;51.434;6.786;2023-01-20T15:10:15;4.40;99.90
36856;DHT22;22788;51.434;6.786;2023-01-20T15:12:52;4.30;99.90
36856;DHT22;22788;51.434;6.786;2023-01-20T15:15:26;4.30;99.90
36856;DHT22;22788;51.434;6.786;2023-01-20T15:18:13;4.30;99.90
36856;DHT22;22788;51.434;6.786;2023-01-20T15:20:41;4.30;99.90
36856;DHT22;22788;51.434;6.786;2023-01-20T15:23:13;4.40;99.90
36856;DHT22;22788;51.434;6.786;2023-01-20T15:25:40;4.30;99.90
36856;DHT22;22788;51.434;6.786;2023-01-20T15:28:21;4.30;99.90
36856;DHT22;22788;51.434;6.786;2023-01-20T15:30:49;4.30;99.90
36856;DHT22;22788;51.434;6.786;2023-01-20T15:33:15;4.30;99.90
36856;DHT22;22788;51.434;6.786;2023-01-20T15:35:42;4.20;99.90
36856;DHT22;22788;51.434;6.786;2023-01-20T15:38:10;4.20;99.90
36856;DHT22;22788;51.434;6.786;2023-01-20T15:40:36;4.20;99.90
36856;DHT22;22788;51.434;6.786;2023-01-20T15:47:56;4.30;99.90
36856;DHT22;22788;51.434;6.786;2023-01-20T15:50:22;4.30;99.90
36856;DHT22;22788;51.434;6.786;2023-01-20T15:52:49;4.20;99.90
36856;DHT22;22788;51.434;6.786;2023-01-20T15:55:17;4.30;99.90
36856;DHT22;22788;51.434;6.786;2023-01-20T15:57:44;4.20;99.90
36856;DHT22;22788;51.434;6.786;2023-01-20T16:00:16;4.30;99.90
36856;DHT22;22788;51.434;6.786;2023-01-20T16:02:42;4.20;99.90
36856;DHT22;22788;51.434;6.786;2023-01-20T16:05:10;4.30;99.90
36856;DHT22;22788;51.434;6.786;2023-01-20T16:07:38;4.20;99.90
36856;DHT22;22788;51.434;6.786;2023-01-20T16:10:04;4.20;99.90
36856;DHT22;22788;51.434;6.786;2023-01-20T16:12:31;4.20;99.90
36856;DHT22;22788;51.434;6.786;2023-01-20T16:14:57;4.20;99.90
36856;DHT22;22788;51.434;6.786;2023-01-20T16:17:27;4.20;99.90
36856;DHT22;22788;51.434;6.786;2023-01-20T16:19:54;4.20;99.90
36856;DHT22;22788;51.434;6.786;2023-01-20T16:22:22;4.20;99.90
36856;DHT22;22788;51.434;6.786;2023-01-20T16:24:48;4.20;99.90
36856;DHT22;22788;51.434;6.786;2023-01-20T16:27:16;4.20;99.90
36856;DHT22;22788;51.434;6.786;2023-01-20T16:29:43;4.20;99.90
36856;DHT22;22788;51.434;6.786;2023-01-20T16:32:09;4.20;99.90
36856;DHT22;22788;51.434;6.786;2023-01-20T16:34:35;4.20;99.90
36856;DHT22;22788;51.434;6.786;2023-01-20T16:37:02;4.30;99.90
36856;DHT22;22788;51.434;6.786;2023-01-20T16:39:29;4.30;99.90
36856;DHT22;22788;51.434;6.786;2023-01-20T16:41:55;4.20;99.90
36856;DHT22;22788;51.434;6.786;2023-01-20T16:44:21;4.20;99.90
36856;DHT22;22788;51.434;6.786;2023-01-20T16:46:47;4.10;99.90
36856;DHT22;22788;51.434;6.786;2023-01-20T16:49:13;4.20;99.90
36856;DHT22;22788;51.434;6.786;2023-01-20T16:51:40;4.20;99.90
36856;DHT22;22788;51.434;6.786;2023-01-20T16:54:06;4.20;99.90
36856;DHT22;22788;51.434;6.786;2023-01-20T16:56:33;4.10;99.90
36856;DHT22;22788;51.434;6.786;2023-01-20T16:59:00;4.10;99.90